sensor_id;sensor_type;location;lat;lon;timestamp;P1;durP1;ratioP1;P2;durP2;ratioP2
56599;SDS011;51832;48.152;11.530;2023-03-14T00:02:58;0.40;;;0.40;;
56599;SDS011;51832;48.152;11.530;2023-03-14T00:07:59;0.30;;;0.30;;
56599;SDS011;51832;48.152;11.530;2023-03-14T00:12:59;0.40;;;0.40;;
56599;SDS011;51832;48.152;11.530;2023-03-14T00:17:59;0.57;;;0.40;;
56599;SDS011;51832;48.152;11.530;2023-03-14T00:23:00;0.43;;;0.43;;
56599;SDS011;51832;48.152;11.530;2023-03-14T00:28:01;1.02;;;0.47;;
56599;SDS011;51832;48.152;11.530;2023-03-14T00:33:01;0.90;;;0.30;;
56599;SDS011;51832;48.152;11.530;2023-03-14T00:38:01;0.98;;;0.63;;
56599;SDS011;51832;48.152;11.530;2023-03-14T00:43:02;0.57;;;0.30;;
56599;SDS011;51832;48.152;11.530;2023-03-14T00:48:02;0.83;;;0.60;;
56599;SDS011;51832;48.152;11.530;2023-03-14T00:53:03;1.10;;;0.50;;
56599;SDS011;51832;48.152;11.530;2023-03-14T00:58:03;0.80;;;0.80;;
56599;SDS011;51832;48.152;11.530;2023-03-14T01:03:04;0.73;;;0.50;;
56599;SDS011;51832;48.152;11.530;2023-03-14T01:08:04;0.32;;;0.32;;
56599;SDS011;51832;48.152;11.530;2023-03-14T01:13:07;2.13;;;0.50;;
56599;SDS011;51832;48.152;11.530;2023-03-14T01:18:08;0.90;;;0.50;;
56599;SDS011;51832;48.152;11.530;2023-03-14T01:23:08;1.37;;;0.80;;
56599;SDS011;51832;48.152;11.530;2023-03-14T01:28:08;1.27;;;0.70;;
56599;SDS011;51832;48.152;11.530;2023-03-14T01:33:09;0.80;;;0.60;;
56599;SDS011;51832;48.152;11.530;2023-03-14T01:38:09;0.47;;;0.40;;
56599;SDS011;51832;48.152;11.530;2023-03-14T01:43:17;0.88;;;0.40;;
56599;SDS011;51832;48.152;11.530;2023-03-14T01:48:20;0.68;;;0.45;;
56599;SDS011;51832;48.152;11.530;2023-03-14T01:53:21;0.45;;;0.35;;
56599;SDS011;51832;48.152;11.530;2023-03-14T01:58:22;0.30;;;0.30;;
56599;SDS011;51832;48.152;11.530;2023-03-14T02:03:25;0.50;;;0.40;;
56599;SDS011;51832;48.152;11.530;2023-03-14T02:08:28;1.70;;;0.40;;
56599;SDS011;51832;48.152;11.530;2023-03-14T02:13:28;1.02;;;0.40;;
56599;SDS011;51832;48.152;11.530;2023-03-14T02:18:28;1.48;;;0.40;;
56599;SDS011;51832;48.152;11.530;2023-03-14T02:28:32;1.92;;;0.50;;
56599;SDS011;51832;48.152;11.530;2023-03-14T02:33:33;1.13;;;0.90;;
56599;SDS011;51832;48.152;11.530;2023-03-14T02:38:35;0.30;;;0.30;;
56599;SDS011;51832;48.152;11.530;2023-03-14T02:43:39;0.30;;;0.30;;
56599;SDS011;51832;48.152;11.530;2023-03-14T02:48:45;0.20;;;0.20;;
56599;SDS011;51832;48.152;11.530;2023-03-14T02:53:49;0.40;;;0.40;;
56599;SDS011;51832;48.152;11.530;2023-03-14T02:58:50;0.30;;;0.30;;
56599;SDS011;51832;48.152;11.530;2023-03-14T03:03:50;0.25;;;0.25;;
56599;SDS011;51832;48.152;11.530;2023-03-14T03:08:51;0.40;;;0.40;;
56599;SDS011;51832;48.152;11.530;2023-03-14T03:13:52;0.30;;;0.30;;
56599;SDS011;51832;48.152;11.530;2023-03-14T03:18:52;0.50;;;0.50;;
56599;SDS011;51832;48.152;11.530;2023-03-14T03:23:53;0.38;;;0.30;;
56599;SDS011;51832;48.152;11.530;2023-03-14T03:28:53;0.20;;;0.20;;
56599;SDS011;51832;48.152;11.530;2023-03-14T03:33:53;0.30;;;0.30;;
56599;SDS011;51832;48.152;11.530;2023-03-14T03:38:54;0.40;;;0.40;;
56599;SDS011;51832;48.152;11.530;2023-03-14T03:43:54;1.05;;;0.35;;
56599;SDS011;51832;48.152;11.530;2023-03-14T03:48:55;0.75;;;0.25;;
56599;SDS011;51832;48.152;11.530;2023-03-14T03:54:00;0.15;;;0.15;;
56599;SDS011;51832;48.152;11.530;2023-03-14T03:59:00;0.20;;;0.20;;
56599;SDS011;51832;48.152;11.530;2023-03-14T04:04:00;0.20;;;0.20;;
56599;SDS011;51832;48.152;11.530;2023-03-14T04:09:01;0.10;;;0.10;;
56599;SDS011;51832;48.152;11.530;2023-03-14T04:14:01;0.85;;;0.40;;
56599;SDS011;51832;48.152;11.530;2023-03-14T04:19:02;0.75;;;0.40;;
56599;SDS011;51832;48.152;11.530;2023-03-14T04:24:03;0.55;;;0.20;;
56599;SDS011;51832;48.152;11.530;2023-03-14T04:29:03;0.38;;;0.30;;
56599;SDS011;51832;48.152;11.530;2023-03-14T04:34:04;0.25;;;0.20;;
56599;SDS011;51832;48.152;11.530;2023-03-14T04:39:04;0.30;;;0.30;;
56599;SDS011;51832;48.152;11.530;2023-03-14T04:44:05;0.22;;;0.22;;
56599;SDS011;51832;48.152;11.530;2023-03-14T04:49:05;0.30;;;0.30;;
56599;SDS011;51832;48.152;11.530;2023-03-14T04:54:06;0.20;;;0.20;;
56599;SDS011;51832;48.152;11.530;2023-03-14T04:59:07;0.20;;;0.20;;
56599;SDS011;51832;48.152;11.530;2023-03-14T05:04:08;0.30;;;0.30;;
56599;SDS011;51832;48.152;11.530;2023-03-14T05:09:08;0.20;;;0.20;;
56599;SDS011;51832;48.152;11.530;2023-03-14T05:14:09;0.28;;;0.20;;
56599;SDS011;51832;48.152;11.530;2023-03-14T05:19:10;0.38;;;0.32;;
56599;SDS011;51832;48.152;11.530;2023-03-14T05:24:11;0.93;;;0.43;;
56599;SDS011;51832;48.152;11.530;2023-03-14T05:29:11;1.42;;;0.73;;
56599;SDS011;51832;48.152;11.530;2023-03-14T05:34:11;0.47;;;0.28;;
56599;SDS011;51832;48.152;11.530;2023-03-14T05:39:12;0.30;;;0.30;;
56599;SDS011;51832;48.152;11.530;2023-03-14T05:44:12;0.25;;;0.25;;
56599;SDS011;51832;48.152;11.530;2023-03-14T05:49:13;0.57;;;0.40;;
56599;SDS011;51832;48.152;11.530;2023-03-14T05:54:13;0.20;;;0.20;;
56599;SDS011;51832;48.152;11.530;2023-03-14T05:59:13;0.30;;;0.30;;
56599;SDS011;51832;48.152;11.530;2023-03-14T06:04:14;0.43;;;0.38;;
56599;SDS011;51832;48.152;11.530;2023-03-14T06:09:15;0.40;;;0.40;;
56599;SDS011;51832;48.152;11.530;2023-03-14T06:14:15;0.52;;;0.32;;
56599;SDS011;51832;48.152;11.530;2023-03-14T06:19:16;0.30;;;0.30;;
56599;SDS011;51832;48.152;11.530;2023-03-14T06:24:17;0.60;;;0.40;;
56599;SDS011;51832;48.152;11.530;2023-03-14T06:29:17;0.30;;;0.20;;
56599;SDS011;51832;48.152;11.530;2023-03-14T06:34:18;2.28;;;0.40;;
56599;SDS011;51832;48.152;11.530;2023-03-14T06:39:18;2.70;;;0.52;;
56599;SDS011;51832;48.152;11.530;2023-03-14T06:44:18;1.05;;;0.55;;
56599;SDS011;51832;48.152;11.530;2023-03-14T06:49:19;3.63;;;2.15;;
56599;SDS011;51832;48.152;11.530;2023-03-14T06:54:19;0.65;;;0.40;;
56599;SDS011;51832;48.152;11.530;2023-03-14T06:59:20;0.40;;;0.40;;
56599;SDS011;51832;48.152;11.530;2023-03-14T07:04:20;0.60;;;0.40;;
56599;SDS011;51832;48.152;11.530;2023-03-14T07:09:21;0.52;;;0.43;;
56599;SDS011;51832;48.152;11.530;2023-03-14T07:14:21;0.32;;;0.30;;
56599;SDS011;51832;48.152;11.530;2023-03-14T07:19:22;0.28;;;0.28;;
56599;SDS011;51832;48.152;11.530;2023-03-14T07:24:22;0.80;;;0.40;;
56599;SDS011;51832;48.152;11.530;2023-03-14T07:29:23;0.30;;;0.30;;
56599;SDS011;51832;48.152;11.530;2023-03-14T07:34:23;0.30;;;0.30;;
56599;SDS011;51832;48.152;11.530;2023-03-14T07:39:24;0.30;;;0.30;;
56599;SDS011;51832;48.152;11.530;2023-03-14T07:44:24;0.30;;;0.30;;
56599;SDS011;51832;48.152;11.530;2023-03-14T07:49:25;1.07;;;0.40;;
56599;SDS011;51832;48.152;11.530;2023-03-14T07:54:25;0.50;;;0.40;;
56599;SDS011;51832;48.152;11.530;2023-03-14T07:59:26;0.32;;;0.30;;
56599;SDS011;51832;48.152;11.530;2023-03-14T08:04:27;0.65;;;0.50;;
56599;SDS011;51832;48.152;11.530;2023-03-14T08:09:27;2.23;;;0.50;;
56599;SDS011;51832;48.152;11.530;2023-03-14T08:14:28;0.40;;;0.40;;
56599;SDS011;51832;48.152;11.530;2023-03-14T08:19:31;0.40;;;0.30;;
56599;SDS011;51832;48.152;11.530;2023-03-14T08:24:31;1.48;;;0.30;;
56599;SDS011;51832;48.152;11.530;2023-03-14T08:29:32;0.40;;;0.40;;
56599;SDS011;51832;48.152;11.530;2023-03-14T08:34:33;0.55;;;0.50;;
56599;SDS011;51832;48.152;11.530;2023-03-14T08:39:33;0.40;;;0.40;;
56599;SDS011;51832;48.152;11.530;2023-03-14T08:44:34;0.60;;;0.40;;
56599;SDS011;51832;48.152;11.530;2023-03-14T08:49:34;0.52;;;0.30;;
56599;SDS011;51832;48.152;11.530;2023-03-14T08:54:35;0.20;;;0.20;;
56599;SDS011;51832;48.152;11.530;2023-03-14T08:59:35;0.30;;;0.30;;
56599;SDS011;51832;48.152;11.530;2023-03-14T09:04:35;0.77;;;0.43;;
56599;SDS011;51832;48.152;11.530;2023-03-14T09:09:36;1.10;;;0.30;;
56599;SDS011;51832;48.152;11.530;2023-03-14T09:14:36;0.80;;;0.50;;
56599;SDS011;51832;48.152;11.530;2023-03-14T09:19:37;0.40;;;0.40;;
56599;SDS011;51832;48.152;11.530;2023-03-14T09:24:37;0.50;;;0.30;;
56599;SDS011;51832;48.152;11.530;2023-03-14T09:29:38;0.65;;;0.40;;
56599;SDS011;51832;48.152;11.530;2023-03-14T09:34:38;1.10;;;0.50;;
56599;SDS011;51832;48.152;11.530;2023-03-14T09:39:39;0.82;;;0.60;;
56599;SDS011;51832;48.152;11.530;2023-03-14T09:44:41;0.50;;;0.50;;
56599;SDS011;51832;48.152;11.530;2023-03-14T09:49:51;0.70;;;0.52;;
56599;SDS011;51832;48.152;11.530;2023-03-14T09:55:05;1.65;;;0.70;;
56599;SDS011;51832;48.152;11.530;2023-03-14T10:00:18;2.35;;;1.30;;
56599;SDS011;51832;48.152;11.530;2023-03-14T10:05:22;2.72;;;0.70;;
56599;SDS011;51832;48.152;11.530;2023-03-14T10:10:24;1.98;;;1.02;;
56599;SDS011;51832;48.152;11.530;2023-03-14T10:15:33;0.55;;;0.52;;
56599;SDS011;51832;48.152;11.530;2023-03-14T10:20:35;0.60;;;0.40;;
56599;SDS011;51832;48.152;11.530;2023-03-14T10:25:39;0.70;;;0.60;;
56599;SDS011;51832;48.152;11.530;2023-03-14T10:30:45;1.17;;;0.40;;
56599;SDS011;51832;48.152;11.530;2023-03-14T10:35:56;0.40;;;0.40;;
56599;SDS011;51832;48.152;11.530;2023-03-14T10:40:59;0.52;;;0.30;;
56599;SDS011;51832;48.152;11.530;2023-03-14T10:46:17;2.47;;;0.30;;
56599;SDS011;51832;48.152;11.530;2023-03-14T10:51:22;0.30;;;0.25;;
56599;SDS011;51832;48.152;11.530;2023-03-14T10:56:26;0.70;;;0.65;;
56599;SDS011;51832;48.152;11.530;2023-03-14T11:01:41;0.38;;;0.35;;
56599;SDS011;51832;48.152;11.530;2023-03-14T11:12:05;0.85;;;0.40;;
56599;SDS011;51832;48.152;11.530;2023-03-14T11:17:34;0.50;;;0.43;;
56599;SDS011;51832;48.152;11.530;2023-03-14T11:27:51;1.27;;;0.30;;
56599;SDS011;51832;48.152;11.530;2023-03-14T11:33:27;1.23;;;0.40;;
56599;SDS011;51832;48.152;11.530;2023-03-14T11:38:49;0.35;;;0.30;;
56599;SDS011;51832;48.152;11.530;2023-03-14T11:43:53;0.30;;;0.30;;
56599;SDS011;51832;48.152;11.530;2023-03-14T11:54:11;1.02;;;0.30;;
56599;SDS011;51832;48.152;11.530;2023-03-14T11:59:21;0.43;;;0.40;;
56599;SDS011;51832;48.152;11.530;2023-03-14T12:09:50;0.30;;;0.30;;
56599;SDS011;51832;48.152;11.530;2023-03-14T12:14:54;0.55;;;0.22;;
56599;SDS011;51832;48.152;11.530;2023-03-14T12:20:02;0.40;;;0.40;;
56599;SDS011;51832;48.152;11.530;2023-03-14T12:25:24;0.20;;;0.20;;
56599;SDS011;51832;48.152;11.530;2023-03-14T12:35:34;0.30;;;0.30;;
56599;SDS011;51832;48.152;11.530;2023-03-14T12:45:41;0.75;;;0.30;;
56599;SDS011;51832;48.152;11.530;2023-03-14T12:50:42;1.10;;;0.40;;
56599;SDS011;51832;48.152;11.530;2023-03-14T12:55:58;0.30;;;0.30;;
56599;SDS011;51832;48.152;11.530;2023-03-14T13:01:04;0.28;;;0.25;;
56599;SDS011;51832;48.152;11.530;2023-03-14T13:06:09;0.15;;;0.15;;
56599;SDS011;51832;48.152;11.530;2023-03-14T13:11:20;1.27;;;0.28;;
56599;SDS011;51832;48.152;11.530;2023-03-14T13:16:21;0.40;;;0.40;;
56599;SDS011;51832;48.152;11.530;2023-03-14T13:21:24;0.63;;;0.35;;
56599;SDS011;51832;48.152;11.530;2023-03-14T13:26:37;0.20;;;0.20;;
56599;SDS011;51832;48.152;11.530;2023-03-14T13:31:42;0.33;;;0.33;;
56599;SDS011;51832;48.152;11.530;2023-03-14T13:36:45;0.30;;;0.30;;
56599;SDS011;51832;48.152;11.530;2023-03-14T13:41:49;0.50;;;0.20;;
56599;SDS011;51832;48.152;11.530;2023-03-14T13:46:51;0.90;;;0.22;;
56599;SDS011;51832;48.152;11.530;2023-03-14T13:51:51;0.10;;;0.10;;
56599;SDS011;51832;48.152;11.530;2023-03-14T13:57:02;0.20;;;0.20;;
56599;SDS011;51832;48.152;11.530;2023-03-14T14:02:12;0.20;;;0.20;;
56599;SDS011;51832;48.152;11.530;2023-03-14T14:07:15;0.30;;;0.20;;
56599;SDS011;51832;48.152;11.530;2023-03-14T14:12:37;0.55;;;0.30;;
56599;SDS011;51832;48.152;11.530;2023-03-14T14:17:43;0.22;;;0.22;;
56599;SDS011;51832;48.152;11.530;2023-03-14T14:22:52;0.20;;;0.20;;
56599;SDS011;51832;48.152;11.530;2023-03-14T14:27:53;2.88;;;0.55;;
56599;SDS011;51832;48.152;11.530;2023-03-14T14:33:09;0.20;;;0.17;;
56599;SDS011;51832;48.152;11.530;2023-03-14T14:38:16;0.32;;;0.25;;
56599;SDS011;51832;48.152;11.530;2023-03-14T14:43:24;0.10;;;0.10;;
56599;SDS011;51832;48.152;11.530;2023-03-14T14:48:27;0.10;;;0.10;;
56599;SDS011;51832;48.152;11.530;2023-03-14T14:53:30;0.35;;;0.20;;
56599;SDS011;51832;48.152;11.530;2023-03-14T14:58:41;0.85;;;0.15;;
56599;SDS011;51832;48.152;11.530;2023-03-14T15:03:45;0.40;;;0.20;;
56599;SDS011;51832;48.152;11.530;2023-03-14T15:08:48;0.20;;;0.20;;
56599;SDS011;51832;48.152;11.530;2023-03-14T15:13:49;0.70;;;0.20;;
56599;SDS011;51832;48.152;11.530;2023-03-14T15:18:55;0.28;;;0.28;;
56599;SDS011;51832;48.152;11.530;2023-03-14T15:23:57;0.30;;;0.30;;
56599;SDS011;51832;48.152;11.530;2023-03-14T15:28:58;0.30;;;0.30;;
56599;SDS011;51832;48.152;11.530;2023-03-14T15:33:58;0.32;;;0.32;;
56599;SDS011;51832;48.152;11.530;2023-03-14T15:38:59;1.90;;;0.68;;
56599;SDS011;51832;48.152;11.530;2023-03-14T15:43:59;0.60;;;0.60;;
56599;SDS011;51832;48.152;11.530;2023-03-14T15:49:00;2.33;;;0.63;;
56599;SDS011;51832;48.152;11.530;2023-03-14T15:54:01;0.70;;;0.70;;
56599;SDS011;51832;48.152;11.530;2023-03-14T15:59:01;0.50;;;0.50;;
56599;SDS011;51832;48.152;11.530;2023-03-14T16:04:02;1.02;;;0.80;;
56599;SDS011;51832;48.152;11.530;2023-03-14T16:09:02;0.68;;;0.50;;
56599;SDS011;51832;48.152;11.530;2023-03-14T16:14:04;1.58;;;0.60;;
56599;SDS011;51832;48.152;11.530;2023-03-14T16:19:05;0.50;;;0.50;;
56599;SDS011;51832;48.152;11.530;2023-03-14T16:24:07;1.17;;;0.63;;
56599;SDS011;51832;48.152;11.530;2023-03-14T16:29:07;1.55;;;0.80;;
56599;SDS011;51832;48.152;11.530;2023-03-14T16:34:08;0.70;;;0.50;;
56599;SDS011;51832;48.152;11.530;2023-03-14T16:39:09;1.20;;;1.08;;
56599;SDS011;51832;48.152;11.530;2023-03-14T16:44:09;1.33;;;0.60;;
56599;SDS011;51832;48.152;11.530;2023-03-14T16:49:10;1.27;;;0.40;;
56599;SDS011;51832;48.152;11.530;2023-03-14T16:54:10;2.15;;;0.70;;
56599;SDS011;51832;48.152;11.530;2023-03-14T16:59:10;1.13;;;0.40;;
56599;SDS011;51832;48.152;11.530;2023-03-14T17:04:11;0.50;;;0.50;;
56599;SDS011;51832;48.152;11.530;2023-03-14T17:09:11;1.35;;;1.05;;
56599;SDS011;51832;48.152;11.530;2023-03-14T17:14:12;1.08;;;0.55;;
56599;SDS011;51832;48.152;11.530;2023-03-14T17:19:12;1.80;;;0.70;;
56599;SDS011;51832;48.152;11.530;2023-03-14T17:24:12;1.83;;;0.60;;
56599;SDS011;51832;48.152;11.530;2023-03-14T17:29:13;1.45;;;0.60;;
56599;SDS011;51832;48.152;11.530;2023-03-14T17:34:13;2.80;;;0.70;;
56599;SDS011;51832;48.152;11.530;2023-03-14T17:39:14;2.80;;;0.60;;
56599;SDS011;51832;48.152;11.530;2023-03-14T17:44:14;1.27;;;0.70;;
56599;SDS011;51832;48.152;11.530;2023-03-14T17:49:14;3.17;;;0.80;;
56599;SDS011;51832;48.152;11.530;2023-03-14T17:54:15;2.92;;;0.85;;
56599;SDS011;51832;48.152;11.530;2023-03-14T17:59:15;0.75;;;0.60;;
56599;SDS011;51832;48.152;11.530;2023-03-14T18:04:16;1.35;;;0.70;;
56599;SDS011;51832;48.152;11.530;2023-03-14T18:09:17;2.20;;;0.70;;
56599;SDS011;51832;48.152;11.530;2023-03-14T18:14:17;2.17;;;0.70;;
56599;SDS011;51832;48.152;11.530;2023-03-14T18:19:18;1.63;;;1.05;;
56599;SDS011;51832;48.152;11.530;2023-03-14T18:24:19;1.92;;;1.00;;
56599;SDS011;51832;48.152;11.530;2023-03-14T18:29:19;2.03;;;0.70;;
56599;SDS011;51832;48.152;11.530;2023-03-14T18:34:20;1.38;;;0.77;;
56599;SDS011;51832;48.152;11.530;2023-03-14T18:39:21;1.45;;;1.05;;
56599;SDS011;51832;48.152;11.530;2023-03-14T18:44:22;3.10;;;0.95;;
56599;SDS011;51832;48.152;11.530;2023-03-14T18:49:22;1.48;;;0.93;;
56599;SDS011;51832;48.152;11.530;2023-03-14T18:54:23;2.20;;;1.07;;
56599;SDS011;51832;48.152;11.530;2023-03-14T18:59:23;1.75;;;0.80;;
56599;SDS011;51832;48.152;11.530;2023-03-14T19:04:24;1.40;;;1.10;;
56599;SDS011;51832;48.152;11.530;2023-03-14T19:09:24;1.67;;;1.00;;
56599;SDS011;51832;48.152;11.530;2023-03-14T19:14:24;3.30;;;1.00;;
56599;SDS011;51832;48.152;11.530;2023-03-14T19:19:25;1.65;;;0.80;;
56599;SDS011;51832;48.152;11.530;2023-03-14T19:24:25;1.93;;;1.10;;
56599;SDS011;51832;48.152;11.530;2023-03-14T19:29:26;1.67;;;0.90;;
56599;SDS011;51832;48.152;11.530;2023-03-14T19:34:26;1.00;;;0.73;;
56599;SDS011;51832;48.152;11.530;2023-03-14T19:39:27;1.15;;;0.73;;
56599;SDS011;51832;48.152;11.530;2023-03-14T19:44:27;1.60;;;0.80;;
56599;SDS011;51832;48.152;11.530;2023-03-14T19:49:28;0.98;;;0.65;;
56599;SDS011;51832;48.152;11.530;2023-03-14T19:54:28;2.28;;;1.00;;
56599;SDS011;51832;48.152;11.530;2023-03-14T19:59:30;1.30;;;1.00;;
56599;SDS011;51832;48.152;11.530;2023-03-14T20:04:31;2.00;;;1.00;;
56599;SDS011;51832;48.152;11.530;2023-03-14T20:09:32;3.90;;;1.10;;
56599;SDS011;51832;48.152;11.530;2023-03-14T20:14:33;2.83;;;1.27;;
56599;SDS011;51832;48.152;11.530;2023-03-14T20:19:34;2.80;;;1.00;;
56599;SDS011;51832;48.152;11.530;2023-03-14T20:24:34;3.70;;;1.17;;
56599;SDS011;51832;48.152;11.530;2023-03-14T20:29:34;6.40;;;1.92;;
56599;SDS011;51832;48.152;11.530;2023-03-14T20:34:35;1.75;;;1.13;;
56599;SDS011;51832;48.152;11.530;2023-03-14T20:39:37;2.05;;;1.20;;
56599;SDS011;51832;48.152;11.530;2023-03-14T20:44:38;4.65;;;1.52;;
56599;SDS011;51832;48.152;11.530;2023-03-14T20:49:38;1.90;;;1.13;;
56599;SDS011;51832;48.152;11.530;2023-03-14T20:54:39;2.45;;;1.10;;
56599;SDS011;51832;48.152;11.530;2023-03-14T20:59:40;3.33;;;1.45;;
56599;SDS011;51832;48.152;11.530;2023-03-14T21:04:40;2.13;;;1.30;;
56599;SDS011;51832;48.152;11.530;2023-03-14T21:09:40;1.42;;;1.02;;
56599;SDS011;51832;48.152;11.530;2023-03-14T21:14:41;4.88;;;1.63;;
56599;SDS011;51832;48.152;11.530;2023-03-14T21:19:41;2.20;;;1.20;;
56599;SDS011;51832;48.152;11.530;2023-03-14T21:24:44;2.83;;;1.40;;
56599;SDS011;51832;48.152;11.530;2023-03-14T21:29:45;3.35;;;1.55;;
56599;SDS011;51832;48.152;11.530;2023-03-14T21:34:45;3.00;;;1.40;;
56599;SDS011;51832;48.152;11.530;2023-03-14T21:39:47;4.00;;;1.63;;
56599;SDS011;51832;48.152;11.530;2023-03-14T21:44:48;2.08;;;1.50;;
56599;SDS011;51832;48.152;11.530;2023-03-14T21:49:51;1.60;;;1.15;;
56599;SDS011;51832;48.152;11.530;2023-03-14T21:54:52;3.83;;;1.42;;
56599;SDS011;51832;48.152;11.530;2023-03-14T21:59:53;3.28;;;1.25;;
56599;SDS011;51832;48.152;11.530;2023-03-14T22:04:53;1.98;;;0.90;;
56599;SDS011;51832;48.152;11.530;2023-03-14T22:09:54;1.35;;;0.85;;
56599;SDS011;51832;48.152;11.530;2023-03-14T22:14:55;2.42;;;0.90;;
56599;SDS011;51832;48.152;11.530;2023-03-14T22:19:55;1.50;;;1.00;;
56599;SDS011;51832;48.152;11.530;2023-03-14T22:24:55;3.10;;;0.82;;
56599;SDS011;51832;48.152;11.530;2023-03-14T22:29:56;3.83;;;1.00;;
56599;SDS011;51832;48.152;11.530;2023-03-14T22:34:56;1.15;;;0.85;;
56599;SDS011;51832;48.152;11.530;2023-03-14T22:39:57;1.60;;;0.95;;
56599;SDS011;51832;48.152;11.530;2023-03-14T22:44:57;2.08;;;1.00;;
56599;SDS011;51832;48.152;11.530;2023-03-14T22:49:57;2.63;;;0.90;;
56599;SDS011;51832;48.152;11.530;2023-03-14T22:54:58;2.05;;;1.05;;
56599;SDS011;51832;48.152;11.530;2023-03-14T22:59:58;4.72;;;1.08;;
56599;SDS011;51832;48.152;11.530;2023-03-14T23:04:59;1.10;;;1.00;;
56599;SDS011;51832;48.152;11.530;2023-03-14T23:09:59;3.33;;;1.20;;
56599;SDS011;51832;48.152;11.530;2023-03-14T23:14:59;1.23;;;0.80;;
56599;SDS011;51832;48.152;11.530;2023-03-14T23:20:00;3.30;;;1.10;;
56599;SDS011;51832;48.152;11.530;2023-03-14T23:25:00;1.30;;;0.88;;
56599;SDS011;51832;48.152;11.530;2023-03-14T23:30:03;2.55;;;0.93;;
56599;SDS011;51832;48.152;11.530;2023-03-14T23:35:04;1.35;;;1.00;;
56599;SDS011;51832;48.152;11.530;2023-03-14T23:40:05;0.70;;;0.70;;
56599;SDS011;51832;48.152;11.530;2023-03-14T23:45:07;1.42;;;0.75;;
56599;SDS011;51832;48.152;11.530;2023-03-14T23:50:07;1.52;;;1.13;;
56599;SDS011;51832;48.152;11.530;2023-03-14T23:55:08;1.13;;;0.90;;
